Terminal Aerodrome Forecast
Issued by NWS Billings, MT

Home | Current Version | Previous Version | Text Only | Print | Product List | Glossary Off
Versions: 1 2 3 4 5 6 7 8 9 10 11 12 13 14 15 16 17 18 19 20 21 22 23 24 25 26 27 28 29 30 31 32

000
FTUS45 KBYZ 220718 AAA
TAFMLS
TAF AMD
KMLS 220718Z 2207/2306 14008KT P6SM FEW200
     FM221900 12015G22KT P6SM SCT050 BKN150
     FM230200 13010KT P6SM FEW050 BKN150=

USA.gov is the U.S. government's official web portal to all federal, state and local government web resources and services.